createdAt,value
2023-03-18T00:01:53.108Z,98845.22
2023-03-18T00:06:06.595Z,98848.88
2023-03-18T00:10:12.082Z,98852.19
2023-03-18T00:14:15.109Z,98855.47
2023-03-18T00:18:17.461Z,98856.63
2023-03-18T00:22:19.664Z,98854.72
2023-03-18T00:26:22.089Z,98862.13
2023-03-18T00:30:25.702Z,98854.66
2023-03-18T00:34:28.148Z,98863.56
2023-03-18T00:38:30.603Z,98862.19
2023-03-18T00:42:39.477Z,98859.78
2023-03-18T00:46:42.350Z,98858.47
2023-03-18T00:50:45.242Z,98860.28
2023-03-18T00:54:48.322Z,98848.88
2023-03-18T00:58:52.699Z,98851.69
2023-03-18T01:02:56.550Z,98848.22
2023-03-18T01:06:59.025Z,98844.13
2023-03-18T01:11:01.748Z,98844.78
2023-03-18T01:15:05.723Z,98839.72
2023-03-18T01:19:08.231Z,98836.97
2023-03-18T01:23:12.897Z,98826.44
2023-03-18T01:27:17.063Z,98821.16
2023-03-18T01:31:22.015Z,98814.69
2023-03-18T01:35:25.784Z,98809.25
2023-03-18T01:39:28.548Z,98808.44
2023-03-18T01:43:34.406Z,98804.69
2023-03-18T01:47:36.816Z,98804.56
2023-03-18T01:51:42.000Z,98817.50
2023-03-18T01:55:47.290Z,98815.88
2023-03-18T01:59:52.247Z,98803.38
2023-03-18T02:03:57.737Z,98808.63
2023-03-18T02:08:07.735Z,98801.75
2023-03-18T02:12:15.257Z,98812.31
2023-03-18T02:16:24.085Z,98803.44
2023-03-18T02:20:44.497Z,98798.19
2023-03-18T02:25:14.327Z,98803.81
2023-03-18T02:29:18.686Z,98804.22
2023-03-18T02:33:36.550Z,98796.91
2023-03-18T02:37:39.384Z,98793.44
2023-03-18T02:41:42.698Z,98804.97
2023-03-18T02:46:33.489Z,98804.97
2023-03-18T02:50:35.989Z,98797.72
2023-03-18T02:54:38.481Z,98813.50
2023-03-18T02:58:43.284Z,98804.56
2023-03-18T03:02:47.157Z,98806.03
2023-03-18T03:06:53.674Z,98806.06
2023-03-18T03:11:13.565Z,98805.47
2023-03-18T03:15:17.711Z,98811.34
2023-03-18T03:19:24.917Z,98811.94
2023-03-18T03:23:28.576Z,98808.69
2023-03-18T03:27:31.249Z,98805.88
2023-03-18T03:31:34.143Z,98807.66
2023-03-18T03:35:37.128Z,98808.06
2023-03-18T03:39:41.492Z,98810.09
2023-03-18T03:43:44.869Z,98813.75
2023-03-18T03:47:47.761Z,98808.72
2023-03-18T03:51:51.346Z,98811.53
2023-03-18T03:55:57.345Z,98813.75
2023-03-18T04:00:00.971Z,98825.28
2023-03-18T04:04:24.271Z,98824.69
2023-03-18T04:08:27.973Z,98826.50
2023-03-18T04:12:31.130Z,98826.88
2023-03-18T04:16:36.451Z,98837.41
2023-03-18T04:20:40.094Z,98838.81
2023-03-18T04:24:53.663Z,98834.16
2023-03-18T04:28:56.230Z,98842.25
2023-03-18T04:33:00.478Z,98840.81
2023-03-18T04:37:03.992Z,98839.78
2023-03-18T04:41:09.021Z,98836.16
2023-03-18T04:45:11.848Z,98843.66
2023-03-18T04:49:14.474Z,98837.78
2023-03-18T04:53:17.845Z,98837.38
2023-03-18T04:57:20.801Z,98828.88
2023-03-18T05:01:27.228Z,98832.13
2023-03-18T05:05:31.422Z,98821.41
2023-03-18T05:09:34.655Z,98825.63
2023-03-18T05:13:37.631Z,98818.78
2023-03-18T05:17:41.903Z,98819.59
2023-03-18T05:21:44.258Z,98821.41
2023-03-18T05:25:49.165Z,98832.72
2023-03-18T05:29:52.778Z,98832.34
2023-03-18T05:34:01.942Z,98822.84
2023-03-18T05:38:09.072Z,98823.88
2023-03-18T05:42:12.714Z,98811.72
2023-03-18T05:46:15.008Z,98812.53
2023-03-18T05:50:42.763Z,98824.03
2023-03-18T05:54:50.197Z,98832.50
2023-03-18T05:58:59.395Z,98837.72
2023-03-18T06:03:09.080Z,98825.88
2023-03-18T06:07:12.664Z,98825.69
2023-03-18T06:11:15.486Z,98815.16
2023-03-18T06:20:00.915Z,98809.00
2023-03-18T06:24:03.363Z,98813.78
2023-03-18T06:28:08.615Z,98812.09
2023-03-18T06:32:12.178Z,98812.41
2023-03-18T06:36:16.927Z,98813.09
2023-03-18T06:40:25.703Z,98818.69
2023-03-18T06:44:30.116Z,98813.91
2023-03-18T06:48:41.038Z,98822.50
2023-03-18T06:52:46.569Z,98828.34
2023-03-18T06:56:53.038Z,98834.16
2023-03-18T07:00:55.596Z,98828.00
2023-03-18T07:05:02.071Z,98831.94
2023-03-18T07:09:05.249Z,98833.38
2023-03-18T07:13:09.042Z,98822.75
2023-03-18T07:17:12.559Z,98829.56
2023-03-18T07:21:20.438Z,98829.06
2023-03-18T07:25:26.078Z,98832.50
2023-03-18T07:29:28.549Z,98838.56
2023-03-18T07:33:30.872Z,98848.16
2023-03-18T07:37:33.591Z,98839.13
2023-03-18T07:41:37.862Z,98830.88
2023-03-18T07:45:40.614Z,98837.88
2023-03-18T07:49:43.316Z,98843.56
2023-03-18T07:53:45.462Z,98849.66
2023-03-18T07:57:47.688Z,98849.41
2023-03-18T08:01:50.373Z,98848.00
2023-03-18T08:05:52.600Z,98846.09
2023-03-18T08:09:54.888Z,98844.75
2023-03-18T08:13:57.102Z,98838.44
2023-03-18T08:17:59.661Z,98835.34
2023-03-18T08:22:02.374Z,98843.69
2023-03-18T08:26:05.247Z,98846.97
2023-03-18T08:30:08.349Z,98849.53
2023-03-18T08:34:10.744Z,98854.09
2023-03-18T08:38:12.956Z,98855.69
2023-03-18T08:42:15.186Z,98854.13
2023-03-18T08:46:18.901Z,98856.53
2023-03-18T08:50:21.399Z,98854.84
2023-03-18T08:54:23.669Z,98844.28
2023-03-18T08:58:27.732Z,98851.94
2023-03-18T09:02:29.989Z,98849.84
2023-03-18T09:06:32.876Z,98852.84
2023-03-18T09:10:35.839Z,98849.34
2023-03-18T09:14:38.879Z,98846.84
2023-03-18T09:18:44.119Z,98844.94
2023-03-18T09:22:47.486Z,98840.75
2023-03-18T09:26:50.063Z,98840.88
2023-03-18T09:30:52.533Z,98836.66
2023-03-18T09:34:58.452Z,98840.19
2023-03-18T09:39:01.214Z,98832.50
2023-03-18T09:43:53.017Z,98836.28
2023-03-18T09:48:11.114Z,98833.66
2023-03-18T09:52:37.649Z,98830.00
2023-03-18T09:56:40.185Z,98835.38
2023-03-18T10:00:43.369Z,98837.03
2023-03-18T10:04:52.831Z,98829.56
2023-03-18T10:08:57.963Z,98827.16
2023-03-18T10:13:17.692Z,98831.16
2023-03-18T10:17:31.412Z,98827.41
2023-03-18T10:21:59.119Z,98823.66
2023-03-18T10:26:10.184Z,98822.34
2023-03-18T10:30:39.300Z,98819.38
2023-03-18T10:35:08.632Z,98812.91
2023-03-18T10:39:17.753Z,98805.38
2023-03-18T10:43:22.835Z,98809.84
2023-03-18T10:47:34.185Z,98801.47
2023-03-18T10:52:01.220Z,98805.97
2023-03-18T10:56:06.481Z,98797.34
2023-03-18T11:00:26.845Z,98793.16
2023-03-18T11:04:35.095Z,98791.72
2023-03-18T11:08:39.761Z,98789.19
2023-03-18T11:12:42.614Z,98786.06
2023-03-18T11:16:58.349Z,98788.69
2023-03-18T11:21:03.706Z,98782.28
2023-03-18T11:25:12.307Z,98778.13
2023-03-18T11:29:24.169Z,98781.38
2023-03-18T11:33:33.450Z,98779.13
2023-03-18T11:37:38.511Z,98784.69
2023-03-18T11:41:40.601Z,98772.50
2023-03-18T11:45:54.517Z,98772.50
2023-03-18T11:49:57.569Z,98759.47
2023-03-18T11:54:12.170Z,98753.81
2023-03-18T11:58:14.680Z,98754.69
2023-03-18T12:02:59.434Z,98738.03
2023-03-18T12:07:17.628Z,98723.41
2023-03-18T12:11:25.512Z,98727.19
2023-03-18T12:15:47.370Z,98714.75
2023-03-18T12:20:18.517Z,98718.19
2023-03-18T12:24:20.730Z,98712.00
2023-03-18T12:28:43.482Z,98720.72
2023-03-18T12:33:22.073Z,98705.47
2023-03-18T12:37:50.908Z,98712.22
2023-03-18T12:42:03.237Z,98710.06
2023-03-18T12:46:14.872Z,98704.75
2023-03-18T12:50:42.217Z,98704.91
2023-03-18T12:54:52.197Z,98694.56
2023-03-18T12:59:12.871Z,98697.09
2023-03-18T13:03:36.512Z,98692.69
2023-03-18T13:07:47.072Z,98686.84
2023-03-18T13:12:04.825Z,98683.03
2023-03-18T13:16:08.110Z,98671.81
2023-03-18T13:20:16.525Z,98677.22
2023-03-18T13:24:43.119Z,98685.28
2023-03-18T13:29:23.793Z,98674.53
2023-03-18T13:33:25.845Z,98677.31
2023-03-18T13:37:55.871Z,98667.25
2023-03-18T13:42:26.194Z,98670.97
2023-03-18T13:46:33.471Z,98661.72
2023-03-18T13:50:40.712Z,98650.81
2023-03-18T13:54:52.970Z,98639.72
2023-03-18T13:58:56.839Z,98628.69
2023-03-18T14:03:32.330Z,98630.47
2023-03-18T14:07:47.913Z,98614.28
2023-03-18T14:11:53.003Z,98615.28
2023-03-18T14:15:58.072Z,98604.03
2023-03-18T14:25:45.403Z,98604.84
2023-03-18T14:29:51.312Z,98607.13
2023-03-18T14:34:23.269Z,98606.28
2023-03-18T14:38:50.119Z,98600.34
2023-03-18T14:42:59.729Z,98593.22
2023-03-18T14:47:38.707Z,98598.50
2023-03-18T14:51:44.575Z,98592.13
2023-03-18T14:55:48.028Z,98598.38
2023-03-18T14:59:50.621Z,98591.09
2023-03-18T15:03:55.364Z,98597.00
2023-03-18T15:07:57.711Z,98590.84
2023-03-18T15:11:59.861Z,98591.56
2023-03-18T15:16:05.282Z,98585.84
2023-03-18T15:20:13.022Z,98582.75
2023-03-18T15:24:26.030Z,98580.03
2023-03-18T15:28:29.578Z,98581.63
2023-03-18T15:32:53.332Z,98579.91
2023-03-18T15:37:01.039Z,98575.47
2023-03-18T15:41:09.803Z,98567.41
2023-03-18T15:45:19.967Z,98570.59
2023-03-18T15:49:28.492Z,98570.41
2023-03-18T15:53:56.771Z,98563.00
2023-03-18T15:57:59.000Z,98567.91
2023-03-18T16:02:01.693Z,98570.28
2023-03-18T16:06:04.224Z,98568.97
2023-03-18T16:10:07.303Z,98575.16
2023-03-18T16:14:19.093Z,98569.59
2023-03-18T16:18:21.959Z,98581.63
2023-03-18T16:22:24.154Z,98579.66
2023-03-18T16:26:26.850Z,98586.69
2023-03-18T16:30:31.292Z,98589.84
2023-03-18T16:34:33.641Z,98592.84
2023-03-18T16:38:35.764Z,98590.66
2023-03-18T16:42:37.906Z,98581.25
2023-03-18T16:46:41.640Z,98572.53
2023-03-18T16:50:47.089Z,98568.22
2023-03-18T16:54:49.326Z,98578.13
2023-03-18T16:58:52.372Z,98585.41
2023-03-18T17:02:55.682Z,98597.66
2023-03-18T17:07:04.385Z,98600.50
2023-03-18T17:11:07.633Z,98606.06
2023-03-18T17:15:14.731Z,98624.94
2023-03-18T17:19:17.894Z,98631.22
2023-03-18T17:23:21.334Z,98627.25
2023-03-18T17:27:27.500Z,98626.00
2023-03-18T17:31:29.758Z,98629.81
2023-03-18T17:35:32.405Z,98623.53
2023-03-18T17:39:34.858Z,98634.22
2023-03-18T17:43:37.393Z,98636.25
2023-03-18T17:47:40.517Z,98631.63
2023-03-18T17:51:43.682Z,98637.44
2023-03-18T17:55:45.880Z,98637.25
2023-03-18T17:59:48.722Z,98630.06
2023-03-18T18:03:51.234Z,98635.19
2023-03-18T18:07:53.388Z,98654.97
2023-03-18T18:11:56.581Z,98667.53
2023-03-18T18:15:58.911Z,98653.09
2023-03-18T18:20:01.114Z,98666.69
2023-03-18T18:24:04.386Z,98673.59
2023-03-18T18:28:17.658Z,98703.50
2023-03-18T18:32:22.071Z,98723.47
2023-03-18T18:36:28.478Z,98731.84
2023-03-18T18:40:31.428Z,98731.31
2023-03-18T18:44:34.252Z,98734.25
2023-03-18T18:48:39.296Z,98737.66
2023-03-18T18:52:41.788Z,98748.50
2023-03-18T18:56:44.041Z,98750.78
2023-03-18T19:00:49.641Z,98740.66
2023-03-18T19:04:52.733Z,98755.78
2023-03-18T19:08:56.792Z,98763.22
2023-03-18T19:12:59.096Z,98764.50
2023-03-18T19:17:03.734Z,98776.78
2023-03-18T19:21:06.928Z,98785.56
2023-03-18T19:25:12.591Z,98772.28
2023-03-18T19:29:15.441Z,98758.69
2023-03-18T19:33:17.719Z,98755.78
2023-03-18T19:37:21.985Z,98766.22
2023-03-18T19:41:24.369Z,98765.44
2023-03-18T19:45:27.459Z,98768.09
2023-03-18T19:49:39.602Z,98771.81
2023-03-18T19:53:47.226Z,98783.47
2023-03-18T19:57:50.592Z,98775.19
2023-03-18T20:01:52.842Z,98788.28
2023-03-18T20:05:55.282Z,98780.38
2023-03-18T20:09:57.667Z,98783.19
2023-03-18T20:14:00.126Z,98786.44
2023-03-18T20:18:02.699Z,98793.91
2023-03-18T20:22:04.958Z,98807.72
2023-03-18T20:26:07.430Z,98800.53
2023-03-18T20:30:24.434Z,98811.34
2023-03-18T20:34:27.140Z,98809.50
2023-03-18T20:38:39.818Z,98819.38
2023-03-18T20:42:42.319Z,98814.97
2023-03-18T20:46:44.666Z,98816.53
2023-03-18T20:50:46.978Z,98829.00
2023-03-18T20:54:49.304Z,98821.34
2023-03-18T20:58:51.850Z,98833.41
2023-03-18T21:02:56.753Z,98832.16
2023-03-18T21:06:59.299Z,98839.47
2023-03-18T21:11:02.257Z,98837.78
2023-03-18T21:15:05.061Z,98847.03
2023-03-18T21:19:07.321Z,98842.13
2023-03-18T21:23:25.824Z,98841.84
2023-03-18T21:27:28.525Z,98845.06
2023-03-18T21:31:34.710Z,98836.75
2023-03-18T21:35:37.432Z,98833.31
2023-03-18T21:39:39.738Z,98837.44
2023-03-18T21:43:41.915Z,98838.97
2023-03-18T21:47:44.143Z,98850.75
2023-03-18T21:51:46.714Z,98859.75
2023-03-18T21:55:50.175Z,98866.28
2023-03-18T21:59:53.604Z,98865.56
2023-03-18T22:03:56.138Z,98863.16
2023-03-18T22:07:58.445Z,98867.63
2023-03-18T22:12:00.769Z,98869.25
2023-03-18T22:16:03.621Z,98873.19
2023-03-18T22:20:07.438Z,98861.72
2023-03-18T22:24:14.471Z,98865.50
2023-03-18T22:28:17.367Z,98863.19
2023-03-18T22:32:33.182Z,98856.97
2023-03-18T22:36:35.810Z,98865.50
2023-03-18T22:40:41.612Z,98876.41
2023-03-18T22:44:44.420Z,98878.94
2023-03-18T22:48:46.626Z,98892.75
2023-03-18T22:52:50.674Z,98886.91
2023-03-18T22:56:52.848Z,98881.34
2023-03-18T23:00:56.380Z,98886.34
2023-03-18T23:04:58.546Z,98879.19
2023-03-18T23:09:00.715Z,98881.16
2023-03-18T23:13:11.514Z,98876.22
2023-03-18T23:17:17.152Z,98880.34
2023-03-18T23:21:22.463Z,98874.59
2023-03-18T23:25:25.106Z,98873.91
2023-03-18T23:29:27.565Z,98870.91
2023-03-18T23:33:29.890Z,98872.03
2023-03-18T23:37:32.236Z,98869.53
2023-03-18T23:41:34.543Z,98875.06
2023-03-18T23:45:38.640Z,98860.56
2023-03-18T23:49:41.516Z,98851.16
2023-03-18T23:53:43.854Z,98868.50
2023-03-18T23:57:46.706Z,98858.63
